Time;durP1;ratioP1;P1;durP2;ratioP2;P2;SDS_P1;SDS_P2;PMS_P1;PMS_P2;Temp;Humidity;BMP_temperature;BMP_pressure;BME280_temperature;BME280_humidity;BME280_pressure;Samples;Min_cycle;Max_cycle;Signal;HPM_P1;HPM_P2
2022/07/14 00:02:21;;;;;;;;;;;;;;;16.92;76.13;99144.63;5085115;28;19967;-67
2022/07/14 00:04:48;;;;;;;;;;;;;;;16.86;75.83;99150.34;5085099;28;19934;-68
2022/07/14 00:07:14;;;;;;;;;;;;;;;16.80;76.12;99146.13;5083135;28;19928;-67
2022/07/14 00:09:40;;;;;;;;;;;;;;;16.83;76.12;99150.19;5086466;28;19997;-68
2022/07/14 00:12:06;;;;;;;;;;;;;;;16.83;76.30;99150.19;5084074;28;20032;-68
2022/07/14 00:14:32;;;;;;;;;;;;;;;16.83;75.85;99147.44;5067626;28;19965;-67
2022/07/14 00:16:58;;;;;;;;;;;;;;;16.84;75.94;99138.00;5085548;28;19967;-70
2022/07/14 00:19:24;;;;;;;;;;;;;;;16.83;75.90;99139.16;5083999;28;19935;-68
2022/07/14 00:21:51;;;;;;;;;;;;;;;16.82;76.50;99143.84;5083254;28;19927;-68
2022/07/14 00:24:18;;;;;;;;;;;;;;;16.87;76.30;99145.63;5084314;28;19927;-68
2022/07/14 00:26:44;;;;;;;;;;;;;;;16.94;76.34;99134.88;5086720;28;20006;-67
2022/07/14 00:29:10;;;;;;;;;;;;;;;17.10;75.69;99126.03;5081458;28;20367;-68
2022/07/14 00:31:35;;;;;;;;;;;;;;;17.15;75.31;99132.16;5082638;28;19928;-67
2022/07/14 00:34:01;;;;;;;;;;;;;;;17.14;75.11;99126.97;5083052;28;20030;-68
2022/07/14 00:36:27;;;;;;;;;;;;;;;17.20;75.03;99130.34;5083159;28;19928;-68
2022/07/14 00:38:55;;;;;;;;;;;;;;;17.28;74.85;99127.53;5084358;28;19969;-69
2022/07/14 00:41:22;;;;;;;;;;;;;;;17.27;74.54;99123.16;5084769;28;20458;-66
2022/07/14 00:43:48;;;;;;;;;;;;;;;17.37;74.70;99113.66;5083014;28;19954;-67
2022/07/14 00:46:14;;;;;;;;;;;;;;;17.42;74.29;99115.41;5084020;28;19932;-68
2022/07/14 00:48:40;;;;;;;;;;;;;;;17.40;74.18;99110.19;5067110;28;20446;-68
2022/07/14 00:51:06;;;;;;;;;;;;;;;17.44;74.38;99099.28;5082195;28;19928;-66
2022/07/14 00:53:31;;;;;;;;;;;;;;;17.46;73.84;99093.41;5065243;28;19932;-66
2022/07/14 00:55:59;;;;;;;;;;;;;;;17.46;74.02;99096.19;5083027;28;19963;-69
2022/07/14 00:58:29;;;;;;;;;;;;;;;17.46;73.82;99088.72;5067063;28;20022;-67
2022/07/14 01:00:54;;;;;;;;;;;;;;;17.43;73.71;99095.72;5082141;28;19974;-68
2022/07/14 01:03:21;;;;;;;;;;;;;;;17.34;74.16;99092.22;5082990;28;19935;-68
2022/07/14 01:05:48;;;;;;;;;;;;;;;17.28;74.01;99090.78;5084255;28;19935;-69
2022/07/14 01:08:14;;;;;;;;;;;;;;;17.23;73.96;99077.19;5086753;28;20322;-71
2022/07/14 01:10:40;;;;;;;;;;;;;;;17.15;73.94;99085.19;5081960;28;19928;-71
2022/07/14 01:13:07;;;;;;;;;;;;;;;17.09;73.96;99077.44;5086131;28;19935;-70
2022/07/14 01:15:33;;;;;;;;;;;;;;;17.08;74.13;99075.84;5084694;28;19928;-69
2022/07/14 01:17:59;;;;;;;;;;;;;;;17.07;73.60;99083.31;5084162;28;20307;-69
2022/07/14 01:20:24;;;;;;;;;;;;;;;17.08;73.55;99082.19;5082481;28;19932;-71
2022/07/14 01:22:52;;;;;;;;;;;;;;;17.10;73.73;99082.66;5081932;28;19934;-71
2022/07/14 01:25:18;;;;;;;;;;;;;;;17.20;73.40;99077.88;5085122;28;19972;-71
2022/07/14 01:27:45;;;;;;;;;;;;;;;17.28;73.06;99079.75;5083623;28;19982;-70
2022/07/14 01:30:11;;;;;;;;;;;;;;;17.32;72.59;99079.88;5083587;28;19969;-70
2022/07/14 01:32:37;;;;;;;;;;;;;;;17.36;72.36;99069.78;5083130;28;20055;-70
2022/07/14 01:35:04;;;;;;;;;;;;;;;17.39;72.33;99080.13;5083160;28;19936;-73
2022/07/14 01:37:29;;;;;;;;;;;;;;;17.41;72.45;99069.59;5085121;28;20014;-69
2022/07/14 01:39:57;;;;;;;;;;;;;;;17.39;72.43;99074.63;5082887;28;20027;-71
2022/07/14 01:42:25;;;;;;;;;;;;;;;17.35;72.61;99068.97;5067020;28;19928;-69
2022/07/14 01:44:51;;;;;;;;;;;;;;;17.35;72.45;99066.22;5081736;28;19935;-70
2022/07/14 01:47:16;;;;;;;;;;;;;;;17.36;73.01;99064.25;5082423;28;19939;-69
2022/07/14 01:49:42;;;;;;;;;;;;;;;17.39;72.97;99058.03;5067872;28;20262;-70
2022/07/14 01:52:09;;;;;;;;;;;;;;;17.38;73.10;99065.53;5084083;28;19973;-69
2022/07/14 01:54:37;;;;;;;;;;;;;;;17.31;73.41;99073.53;5083648;28;20437;-70
2022/07/14 01:57:06;;;;;;;;;;;;;;;17.32;73.76;99072.38;5083121;28;19928;-66
2022/07/14 01:59:32;;;;;;;;;;;;;;;17.27;74.04;99081.72;5083817;28;19939;-66
2022/07/14 02:01:58;;;;;;;;;;;;;;;17.16;74.39;99080.50;5065185;28;19974;-66
2022/07/14 02:04:24;;;;;;;;;;;;;;;17.11;74.45;99077.94;5083996;28;19955;-68
2022/07/14 02:06:51;;;;;;;;;;;;;;;17.08;74.63;99079.41;5082389;28;19935;-68
2022/07/14 02:12:30;;;;;;;;;;;;;;;17.11;74.22;99080.72;5081522;28;19993;-68
2022/07/14 02:14:56;;;;;;;;;;;;;;;17.14;74.39;99074.50;5081655;28;19935;-68
2022/07/14 02:17:23;;;;;;;;;;;;;;;17.23;73.78;99078.00;5081866;28;19928;-67
2022/07/14 02:19:50;;;;;;;;;;;;;;;17.29;73.42;99084.13;5081828;28;19937;-67
2022/07/14 02:22:15;;;;;;;;;;;;;;;17.28;72.84;99083.34;5047902;28;19928;-68
2022/07/14 02:24:41;;;;;;;;;;;;;;;17.27;72.61;99089.19;5083639;28;20023;-70
2022/07/14 02:27:07;;;;;;;;;;;;;;;17.28;72.13;99102.66;5066386;28;20019;-71
2022/07/14 02:29:34;;;;;;;;;;;;;;;17.29;71.88;99111.75;5063083;28;19979;-70
2022/07/14 02:32:00;;;;;;;;;;;;;;;17.30;71.55;99135.47;5060655;28;19928;-70
2022/07/14 02:34:26;;;;;;;;;;;;;;;17.29;71.92;99147.66;5063027;28;19938;-71
2022/07/14 02:36:52;;;;;;;;;;;;;;;17.24;72.08;99129.31;5061570;28;20352;-69
2022/07/14 02:39:18;;;;;;;;;;;;;;;17.20;71.85;99142.19;5064740;28;20292;-70
2022/07/14 02:41:44;;;;;;;;;;;;;;;17.20;71.86;99146.94;5044643;28;19928;-68
2022/07/14 02:44:12;;;;;;;;;;;;;;;17.21;72.09;99163.16;5044442;28;20050;-68
2022/07/14 02:46:40;;;;;;;;;;;;;;;17.22;72.04;99155.69;5063927;28;19982;-68
2022/07/14 02:49:06;;;;;;;;;;;;;;;17.24;71.58;99158.91;5045546;28;19990;-69
2022/07/14 02:51:35;;;;;;;;;;;;;;;17.34;70.45;99152.19;5042987;28;20476;-69
2022/07/14 02:54:01;;;;;;;;;;;;;;;17.39;69.53;99146.44;5048131;28;19928;-70
2022/07/14 02:56:27;;;;;;;;;;;;;;;17.44;69.20;99154.56;5044788;28;20446;-70
2022/07/14 02:58:54;;;;;;;;;;;;;;;17.47;68.36;99144.75;5066955;28;19928;-70
2022/07/14 03:01:20;;;;;;;;;;;;;;;17.47;68.07;99140.06;5048200;28;19936;-70
2022/07/14 03:03:47;;;;;;;;;;;;;;;17.46;65.56;99138.44;5069130;28;20005;-69
2022/07/14 03:06:14;;;;;;;;;;;;;;;17.48;63.14;99127.03;5061125;28;19947;-68
2022/07/14 03:08:41;;;;;;;;;;;;;;;17.52;63.36;99128.78;5050618;28;19928;-69
2022/07/14 03:11:08;;;;;;;;;;;;;;;17.61;63.95;99130.69;5064163;28;20403;-71
2022/07/14 03:13:35;;;;;;;;;;;;;;;17.66;64.34;99116.66;5065020;28;20463;-70
2022/07/14 03:16:01;;;;;;;;;;;;;;;17.62;65.19;99104.66;5031728;28;20031;-71
2022/07/14 03:18:26;;;;;;;;;;;;;;;17.58;65.59;99085.19;5065523;28;20031;-69
2022/07/14 03:20:55;;;;;;;;;;;;;;;17.52;66.23;99076.28;5064516;28;19935;-69
2022/07/14 03:23:22;;;;;;;;;;;;;;;17.50;66.39;99075.81;5064189;28;19932;-69
2022/07/14 03:25:49;;;;;;;;;;;;;;;17.51;66.79;99071.13;5065427;28;19990;-70
2022/07/14 03:28:15;;;;;;;;;;;;;;;17.55;66.14;99072.84;5065674;28;19951;-70
2022/07/14 03:30:42;;;;;;;;;;;;;;;17.56;65.92;99057.06;5075589;28;19985;-70
2022/07/14 03:33:08;;;;;;;;;;;;;;;17.60;65.33;99066.28;5084942;28;19973;-71
2022/07/14 03:35:36;;;;;;;;;;;;;;;17.64;65.24;99072.78;5087866;28;19981;-70
2022/07/14 03:38:03;;;;;;;;;;;;;;;17.70;65.07;99065.06;5085044;28;19932;-69
2022/07/14 03:40:29;;;;;;;;;;;;;;;17.78;64.24;99071.66;5082376;28;19932;-69
2022/07/14 03:42:55;;;;;;;;;;;;;;;17.83;63.73;99068.69;5084382;28;19935;-69
2022/07/14 03:45:21;;;;;;;;;;;;;;;17.93;63.28;99065.47;5075323;28;19932;-70
2022/07/14 03:47:47;;;;;;;;;;;;;;;18.08;62.60;99064.03;5063985;28;19928;-70
2022/07/14 03:50:13;;;;;;;;;;;;;;;18.18;62.56;99060.00;5065180;28;20023;-70
2022/07/14 03:52:39;;;;;;;;;;;;;;;18.25;62.35;99062.22;5064292;28;19928;-70
2022/07/14 03:55:07;;;;;;;;;;;;;;;18.31;61.92;99058.06;5066609;28;19974;-70
2022/07/14 03:57:33;;;;;;;;;;;;;;;18.41;62.31;99048.47;5044235;28;20023;-70
2022/07/14 03:59:59;;;;;;;;;;;;;;;18.48;61.93;99045.16;5044315;28;20578;-67
2022/07/14 04:02:25;;;;;;;;;;;;;;;18.60;62.00;99055.41;5046508;28;20061;-67
2022/07/14 04:04:51;;;;;;;;;;;;;;;18.62;61.87;99036.50;5045904;28;19935;-69
2022/07/14 04:07:17;;;;;;;;;;;;;;;18.75;61.63;99028.97;5058036;28;20303;-70
2022/07/14 04:09:43;;;;;;;;;;;;;;;18.88;61.20;99038.06;5064604;28;19964;-71
2022/07/14 04:12:10;;;;;;;;;;;;;;;18.94;60.55;99036.69;5063268;28;20418;-69
2022/07/14 04:14:36;;;;;;;;;;;;;;;19.11;60.27;99038.38;5064404;28;19929;-71
2022/07/14 04:17:03;;;;;;;;;;;;;;;19.23;59.80;99035.56;5064385;28;19934;-70
2022/07/14 04:19:29;;;;;;;;;;;;;;;19.34;59.63;99035.06;5073462;28;20310;-70
2022/07/14 04:21:55;;;;;;;;;;;;;;;19.48;59.19;99031.88;5079706;28;20060;-69
2022/07/14 04:24:21;;;;;;;;;;;;;;;19.55;59.38;99029.31;5061538;28;20034;-70
2022/07/14 04:26:47;;;;;;;;;;;;;;;19.68;59.03;99032.84;5064870;28;19982;-71
2022/07/14 04:29:15;;;;;;;;;;;;;;;19.74;58.76;99020.31;5064340;28;19936;-70
2022/07/14 04:31:42;;;;;;;;;;;;;;;19.79;59.21;99027.56;5044374;28;19939;-70
2022/07/14 04:34:11;;;;;;;;;;;;;;;19.83;59.02;99020.94;5047254;28;19928;-70
2022/07/14 04:36:37;;;;;;;;;;;;;;;19.86;59.70;99022.22;5065078;28;19936;-67
2022/07/14 04:39:07;;;;;;;;;;;;;;;19.87;59.74;99021.06;5065974;28;20394;-68
2022/07/14 04:41:34;;;;;;;;;;;;;;;19.93;60.49;99013.31;5081308;28;19935;-68
2022/07/14 04:44:00;;;;;;;;;;;;;;;19.95;61.25;99006.22;5084919;28;20222;-68
2022/07/14 04:46:27;;;;;;;;;;;;;;;19.94;61.28;98998.28;5084174;28;19932;-67
2022/07/14 04:52:03;;;;;;;;;;;;;;;19.90;61.61;98994.56;5082005;28;19967;-69
2022/07/14 04:54:46;;;;;;;;;;;;;;;19.90;60.36;98994.56;5083623;28;19980;-68
2022/07/14 04:57:38;;;;;;;;;;;;;;;19.78;60.33;98993.50;5083835;28;20410;-68
2022/07/14 05:00:07;;;;;;;;;;;;;;;19.74;59.36;98989.00;5083344;28;19935;-68
2022/07/14 05:02:36;;;;;;;;;;;;;;;19.66;59.31;98991.59;5083232;28;19944;-69
2022/07/14 05:05:02;;;;;;;;;;;;;;;19.70;59.15;98991.69;5083037;28;19932;-68
2022/07/14 05:07:29;;;;;;;;;;;;;;;19.77;59.04;98986.34;5083482;28;19971;-68
2022/07/14 05:09:56;;;;;;;;;;;;;;;19.83;58.55;98987.66;5065128;28;19973;-68
2022/07/14 05:12:22;;;;;;;;;;;;;;;19.92;58.81;98984.75;5080310;28;20155;-68
2022/07/14 05:14:48;;;;;;;;;;;;;;;20.01;58.21;98978.22;5083584;28;20023;-68
2022/07/14 05:17:15;;;;;;;;;;;;;;;20.14;57.99;98985.28;5080452;28;19928;-68
2022/07/14 05:19:47;;;;;;;;;;;;;;;20.16;57.33;98966.31;5085550;28;20307;-68
2022/07/14 05:22:13;;;;;;;;;;;;;;;20.33;57.10;98976.22;5081935;28;20062;-68
2022/07/14 05:24:39;;;;;;;;;;;;;;;20.42;57.05;98978.78;5081885;28;20413;-68
2022/07/14 05:27:04;;;;;;;;;;;;;;;20.51;56.60;98981.38;5082943;28;19928;-69
2022/07/14 05:29:33;;;;;;;;;;;;;;;20.68;56.43;98967.09;5083850;28;20311;-67
2022/07/14 05:32:00;;;;;;;;;;;;;;;20.82;55.93;98969.41;5084596;28;19934;-71
2022/07/14 05:34:26;;;;;;;;;;;;;;;20.91;56.04;98969.19;5081832;28;19932;-68
2022/07/14 05:36:54;;;;;;;;;;;;;;;21.02;55.70;98965.81;5077698;28;19964;-69
2022/07/14 05:39:19;;;;;;;;;;;;;;;21.04;55.55;98964.25;5077711;28;19928;-68
2022/07/14 05:41:46;;;;;;;;;;;;;;;21.03;55.09;98959.88;5062425;28;19959;-69
2022/07/14 05:44:12;;;;;;;;;;;;;;;20.99;55.04;98960.97;5044749;28;19929;-69
2022/07/14 05:46:39;;;;;;;;;;;;;;;21.01;55.02;98950.31;5054029;28;19963;-67
2022/07/14 05:49:05;;;;;;;;;;;;;;;21.02;54.88;98944.38;5058482;28;19978;-68
2022/07/14 05:51:32;;;;;;;;;;;;;;;21.02;55.04;98944.38;5070651;28;19934;-68
2022/07/14 05:53:59;;;;;;;;;;;;;;;20.99;55.23;98949.84;5069439;28;20369;-68
2022/07/14 05:56:26;;;;;;;;;;;;;;;21.00;55.21;98946.72;5069305;28;19975;-68
2022/07/14 05:58:52;;;;;;;;;;;;;;;21.08;55.09;98950.44;5065631;28;19932;-68
2022/07/14 06:01:20;;;;;;;;;;;;;;;21.19;54.83;98939.53;5073791;28;19928;-68
2022/07/14 06:03:53;;;;;;;;;;;;;;;21.31;54.37;98931.03;5059930;28;20421;-69
2022/07/14 06:06:20;;;;;;;;;;;;;;;21.39;54.23;98930.00;5068058;28;20015;-68
2022/07/14 06:08:47;;;;;;;;;;;;;;;21.49;54.06;98928.59;5080458;28;19928;-71
2022/07/14 06:11:14;;;;;;;;;;;;;;;21.60;53.57;98928.78;5033574;28;19935;-71
2022/07/14 06:13:41;;;;;;;;;;;;;;;21.77;53.17;98933.06;5052916;28;19936;-71
2022/07/14 06:16:07;;;;;;;;;;;;;;;21.94;52.57;98926.19;5042903;28;20403;-69
2022/07/14 06:18:34;;;;;;;;;;;;;;;21.99;52.02;98935.38;5048271;28;20044;-70
2022/07/14 06:21:00;;;;;;;;;;;;;;;22.06;51.40;98927.94;5024451;28;19936;-70
2022/07/14 06:23:26;;;;;;;;;;;;;;;22.21;50.90;98920.63;5042424;28;19933;-71
2022/07/14 06:25:52;;;;;;;;;;;;;;;22.26;49.89;98927.06;5043463;28;19982;-70
2022/07/14 06:28:23;;;;;;;;;;;;;;;22.24;49.52;98927.41;5041308;28;19933;-68
2022/07/14 06:30:55;;;;;;;;;;;;;;;22.17;49.15;98930.91;5058767;28;20257;-71
2022/07/14 06:33:21;;;;;;;;;;;;;;;22.28;49.18;98935.81;5060355;28;20396;-70
2022/07/14 06:35:47;;;;;;;;;;;;;;;22.45;48.92;98935.28;5064574;28;20374;-71
2022/07/14 06:38:13;;;;;;;;;;;;;;;22.54;48.96;98935.03;5044180;28;19954;-70
2022/07/14 06:40:39;;;;;;;;;;;;;;;22.63;48.69;98929.16;5052209;28;19933;-71
2022/07/14 06:43:05;;;;;;;;;;;;;;;22.72;48.69;98931.69;5061290;28;20314;-70
2022/07/14 06:45:40;;;;;;;;;;;;;;;22.86;48.07;98934.63;5061294;28;19989;-70
2022/07/14 06:48:07;;;;;;;;;;;;;;;23.00;47.95;98927.63;5083577;28;19973;-70
2022/07/14 06:50:32;;;;;;;;;;;;;;;23.03;47.95;98918.53;5079653;28;19932;-71
2022/07/14 06:52:58;;;;;;;;;;;;;;;23.22;47.50;98923.09;5062669;28;20411;-71
2022/07/14 06:55:24;;;;;;;;;;;;;;;23.37;47.19;98919.31;5062472;28;19928;-70
2022/07/14 06:57:50;;;;;;;;;;;;;;;23.42;47.11;98915.38;5061580;28;19935;-71
2022/07/14 07:00:16;;;;;;;;;;;;;;;23.61;46.54;98916.31;5061796;28;19967;-70
2022/07/14 07:02:43;;;;;;;;;;;;;;;23.68;46.34;98908.03;5062859;28;19957;-71
2022/07/14 07:07:56;;;;;;;;;;;;;;;23.39;45.69;98915.31;5058205;28;19929;-71
2022/07/14 07:10:22;;;;;;;;;;;;;;;23.21;45.88;98916.72;5071378;28;20280;-71
2022/07/14 07:12:48;;;;;;;;;;;;;;;23.19;45.10;98909.94;5062324;28;19928;-69
2022/07/14 07:15:14;;;;;;;;;;;;;;;23.29;44.06;98906.50;5062466;28;19935;-69
2022/07/14 07:17:39;;;;;;;;;;;;;;;23.48;43.92;98908.25;5068021;28;19936;-71
2022/07/14 07:20:09;;;;;;;;;;;;;;;23.83;43.42;98905.38;5060999;28;19955;-68
2022/07/14 07:22:35;;;;;;;;;;;;;;;24.16;43.09;98904.41;5065559;28;19934;-68
2022/07/14 07:25:00;;;;;;;;;;;;;;;24.29;42.53;98916.09;5075249;28;19928;-69
2022/07/14 07:27:26;;;;;;;;;;;;;;;24.19;42.79;98925.97;5061273;28;20498;-69
2022/07/14 07:29:52;;;;;;;;;;;;;;;23.71;43.21;98931.56;5079673;28;19928;-71
2022/07/14 07:32:18;;;;;;;;;;;;;;;23.03;44.80;98952.75;5065487;28;20787;-68
2022/07/14 07:34:44;;;;;;;;;;;;;;;22.52;45.99;98952.13;5070705;28;20430;-69
2022/07/14 07:37:11;;;;;;;;;;;;;;;22.16;47.13;98939.63;5071947;28;19932;-71
2022/07/14 07:39:37;;;;;;;;;;;;;;;21.93;47.87;98938.50;5049966;28;19981;-71
2022/07/14 07:42:03;;;;;;;;;;;;;;;21.81;48.25;98936.72;5068287;28;20365;-71
2022/07/14 07:44:30;;;;;;;;;;;;;;;21.80;48.79;98937.06;5067487;28;20021;-71
2022/07/14 07:46:56;;;;;;;;;;;;;;;21.78;48.00;98922.75;5060142;28;19935;-71
2022/07/14 07:49:22;;;;;;;;;;;;;;;21.92;48.00;98914.63;5071068;28;19932;-71
2022/07/14 07:51:48;;;;;;;;;;;;;;;22.33;47.61;98899.31;5068128;28;19932;-68
2022/07/14 07:54:16;;;;;;;;;;;;;;;23.19;45.56;98890.41;4714539;28;10000469;-71
2022/07/14 07:56:42;;;;;;;;;;;;;;;23.87;44.11;98879.06;5065309;28;20044;-69
2022/07/14 07:59:08;;;;;;;;;;;;;;;24.05;43.16;98878.44;5063253;28;20250;-71
2022/07/14 08:01:33;;;;;;;;;;;;;;;24.12;42.51;98878.47;5065209;28;20015;-70
2022/07/14 08:03:59;;;;;;;;;;;;;;;24.15;42.34;98869.31;5063428;28;19939;-68
2022/07/14 08:06:25;;;;;;;;;;;;;;;24.19;41.91;98861.75;5069068;28;19929;-71
2022/07/14 08:08:50;;;;;;;;;;;;;;;24.37;41.63;98869.44;5071948;28;19928;-71
2022/07/14 08:11:18;;;;;;;;;;;;;;;24.59;40.68;98866.75;5057852;28;19929;-70
2022/07/14 08:13:43;;;;;;;;;;;;;;;24.77;40.49;98866.84;5071550;28;20027;-70
2022/07/14 08:16:09;;;;;;;;;;;;;;;24.92;40.49;98862.09;5078518;28;20023;-71
2022/07/14 08:18:35;;;;;;;;;;;;;;;25.15;39.57;98861.72;5070434;28;19933;-70
2022/07/14 08:21:01;;;;;;;;;;;;;;;25.81;38.21;98861.78;5068720;28;19968;-71
2022/07/14 08:23:27;;;;;;;;;;;;;;;26.39;36.71;98854.09;5065257;28;19967;-71
2022/07/14 08:25:53;;;;;;;;;;;;;;;26.89;35.99;98855.09;5073667;28;19932;-70
2022/07/14 08:28:21;;;;;;;;;;;;;;;26.97;36.02;98858.66;5060521;28;20422;-71
2022/07/14 08:30:47;;;;;;;;;;;;;;;26.47;36.97;98847.25;5061274;28;20011;-71
2022/07/14 08:33:13;;;;;;;;;;;;;;;26.10;37.58;98836.53;5077230;28;19997;-71
2022/07/14 08:35:39;;;;;;;;;;;;;;;25.67;38.60;98843.78;5061891;28;19968;-68
2022/07/14 08:38:05;;;;;;;;;;;;;;;25.27;39.59;98838.16;5066453;28;19970;-68
2022/07/14 08:40:33;;;;;;;;;;;;;;;25.03;39.92;98846.16;5060333;28;19929;-68
2022/07/14 08:42:59;;;;;;;;;;;;;;;24.88;40.11;98842.50;5064080;28;19968;-68
2022/07/14 08:45:26;;;;;;;;;;;;;;;24.91;40.46;98835.31;5062023;28;19975;-69
2022/07/14 08:47:53;;;;;;;;;;;;;;;25.23;40.13;98826.19;5043061;28;19938;-71
2022/07/14 08:50:19;;;;;;;;;;;;;;;26.07;38.74;98817.75;5058081;28;20661;-68
2022/07/14 08:52:46;;;;;;;;;;;;;;;26.43;38.07;98818.44;5059679;28;19936;-68
2022/07/14 08:55:13;;;;;;;;;;;;;;;26.40;38.58;98816.47;5062747;28;19929;-68
2022/07/14 08:57:39;;;;;;;;;;;;;;;26.43;38.75;98821.25;5065519;28;19976;-69
2022/07/14 09:00:08;;;;;;;;;;;;;;;26.70;38.20;98806.72;5048408;28;20039;-68
2022/07/14 09:02:35;;;;;;;;;;;;;;;27.13;37.75;98802.84;5066100;28;19928;-67
2022/07/14 09:05:01;;;;;;;;;;;;;;;27.41;37.08;98803.84;5072662;28;19928;-68
2022/07/14 09:07:30;;;;;;;;;;;;;;;26.99;37.10;98798.13;5067834;28;19986;-67
2022/07/14 09:09:59;;;;;;;;;;;;;;;27.17;36.88;98789.59;5062557;28;20058;-69
2022/07/14 09:12:28;;;;;;;;;;;;;;;27.93;36.36;98796.53;5061144;28;20358;-68
2022/07/14 09:17:48;;;;;;;;;;;;;;;27.98;33.59;98795.28;5072634;28;19928;-69
2022/07/14 09:20:24;;;;;;;;;;;;;;;27.20;34.19;98784.34;5021608;27;9999810;-68
2022/07/14 09:22:53;;;;;;;;;;;;;;;26.92;34.22;98778.56;5057724;28;19990;-69
2022/07/14 09:25:20;;;;;;;;;;;;;;;27.02;34.34;98758.06;5059747;28;19935;-68
2022/07/14 09:27:46;;;;;;;;;;;;;;;27.27;34.11;98767.47;5061579;28;19956;-68
2022/07/14 09:30:12;;;;;;;;;;;;;;;27.69;33.71;98759.88;5062546;28;19929;-70
2022/07/14 09:32:56;;;;;;;;;;;;;;;28.14;32.89;98756.19;5062197;28;19928;-68
2022/07/14 09:35:25;;;;;;;;;;;;;;;28.38;32.48;98752.69;5056373;28;19985;-68
2022/07/14 09:37:51;;;;;;;;;;;;;;;28.70;32.32;98743.78;5057619;28;19943;-68
2022/07/14 09:40:22;;;;;;;;;;;;;;;28.58;32.20;98738.78;5056444;28;19934;-68
2022/07/14 09:42:50;;;;;;;;;;;;;;;28.47;32.09;98738.91;5057679;28;20319;-68
2022/07/14 09:45:16;;;;;;;;;;;;;;;27.94;32.61;98738.34;5065849;28;19935;-68
2022/07/14 09:47:56;;;;;;;;;;;;;;;27.12;34.03;98730.31;5059522;28;19929;-68
2022/07/14 09:50:37;;;;;;;;;;;;;;;26.30;35.86;98722.06;5050764;28;19928;-70
2022/07/14 09:53:16;;;;;;;;;;;;;;;25.80;36.80;98723.03;5056510;28;19932;-70
2022/07/14 09:55:46;;;;;;;;;;;;;;;25.42;37.89;98724.28;5057686;28;20408;-70
2022/07/14 09:58:12;;;;;;;;;;;;;;;25.16;38.31;98734.69;5040177;28;20328;-70
2022/07/14 10:00:40;;;;;;;;;;;;;;;24.99;38.51;98729.91;5057997;28;19928;-71
2022/07/14 10:03:06;;;;;;;;;;;;;;;24.86;38.68;98733.09;5064197;28;19928;-70
2022/07/14 10:05:33;;;;;;;;;;;;;;;24.83;38.78;98744.28;5072166;28;20342;-71
2022/07/14 10:08:02;;;;;;;;;;;;;;;24.86;38.87;98744.28;5064762;28;19968;-70
2022/07/14 10:10:31;;;;;;;;;;;;;;;24.90;39.26;98744.28;5065029;28;20369;-70
2022/07/14 10:12:57;;;;;;;;;;;;;;;25.30;38.83;98736.72;5067830;28;19980;-70
2022/07/14 10:15:24;;;;;;;;;;;;;;;25.88;37.94;98741.41;5046284;28;19939;-71
2022/07/14 10:17:49;;;;;;;;;;;;;;;26.13;37.71;98743.31;5064262;28;20297;-70
2022/07/14 10:20:19;;;;;;;;;;;;;;;26.25;37.25;98737.28;5065732;28;19932;-71
2022/07/14 10:22:46;;;;;;;;;;;;;;;26.25;37.43;98734.47;5065079;28;19981;-69
2022/07/14 10:25:13;;;;;;;;;;;;;;;26.48;36.60;98736.75;5068676;28;20013;-70
2022/07/14 10:27:39;;;;;;;;;;;;;;;26.40;36.58;98726.81;5056686;28;20071;-70
2022/07/14 10:30:06;;;;;;;;;;;;;;;26.46;36.51;98724.38;5057015;28;19928;-68
2022/07/14 10:32:35;;;;;;;;;;;;;;;26.76;36.14;98729.38;5056716;28;19940;-68
2022/07/14 10:35:06;;;;;;;;;;;;;;;27.24;35.41;98726.22;5066914;28;19936;-68
2022/07/14 10:37:39;;;;;;;;;;;;;;;27.82;34.51;98718.03;5059138;28;19939;-68
2022/07/14 10:40:10;;;;;;;;;;;;;;;27.72;34.97;98722.56;5053948;28;20771;-68
2022/07/14 10:42:41;;;;;;;;;;;;;;;27.03;35.93;98723.19;5057596;28;20578;-68
2022/07/14 10:45:07;;;;;;;;;;;;;;;26.07;37.92;98726.16;5055359;28;20513;-71
2022/07/14 10:47:45;;;;;;;;;;;;;;;25.56;39.18;98734.69;5060078;28;19932;-70
2022/07/14 10:50:12;;;;;;;;;;;;;;;25.13;39.65;98723.50;5062348;28;20020;-70
2022/07/14 10:52:38;;;;;;;;;;;;;;;24.73;39.84;98729.06;5066595;28;19928;-70
2022/07/14 10:55:08;;;;;;;;;;;;;;;24.43;40.70;98721.81;5061627;28;19928;-71
2022/07/14 10:57:34;;;;;;;;;;;;;;;24.28;41.47;98740.53;5070154;28;20028;-72
2022/07/14 11:00:03;;;;;;;;;;;;;;;24.15;42.43;98738.09;5077674;28;20290;-70
2022/07/14 11:02:31;;;;;;;;;;;;;;;23.76;43.23;98738.69;5067248;28;20022;-70
2022/07/14 11:05:02;;;;;;;;;;;;;;;23.46;43.74;98746.06;5074273;28;19935;-70
2022/07/14 11:07:35;;;;;;;;;;;;;;;23.36;43.89;98753.19;5065967;28;20033;-70
2022/07/14 11:10:03;;;;;;;;;;;;;;;23.19;44.10;98748.25;5057260;28;20326;-70
2022/07/14 11:12:29;;;;;;;;;;;;;;;23.01;43.76;98742.50;5067350;28;20363;-70
2022/07/14 11:14:55;;;;;;;;;;;;;;;22.90;44.05;98759.94;5062880;28;20010;-68
2022/07/14 11:17:40;;;;;;;;;;;;;;;22.41;46.82;98781.28;5062312;28;20415;-70
2022/07/14 11:20:08;;;;;;;;;;;;;;;21.94;48.08;98778.72;5066457;28;20090;-70
2022/07/14 11:22:34;;;;;;;;;;;;;;;21.98;48.38;98783.53;5066330;28;20383;-71
2022/07/14 11:25:01;;;;;;;;;;;;;;;22.13;48.19;98776.19;5059853;28;20015;-71
2022/07/14 11:27:36;;;;;;;;;;;;;;;22.32;47.98;98781.59;5063860;28;19929;-70
2022/07/14 11:30:22;;;;;;;;;;;;;;;22.53;47.47;98769.09;5063317;28;20034;-70
2022/07/14 11:33:03;;;;;;;;;;;;;;;22.64;46.71;98778.38;5054727;28;20472;-70
2022/07/14 11:38:28;;;;;;;;;;;;;;;22.80;46.55;98766.22;5053921;28;19929;-68
2022/07/14 11:40:55;;;;;;;;;;;;;;;23.11;46.26;98766.09;5059591;28;19928;-68
2022/07/14 11:43:37;;;;;;;;;;;;;;;24.13;44.47;98760.03;5052062;28;19952;-68
2022/07/14 11:46:03;;;;;;;;;;;;;;;25.97;40.95;98750.16;5053312;28;19939;-68
2022/07/14 11:48:31;;;;;;;;;;;;;;;27.03;38.73;98751.25;5051526;28;20030;-68
2022/07/14 11:51:01;;;;;;;;;;;;;;;28.35;34.80;98751.53;5046253;28;19940;-68
2022/07/14 11:53:28;;;;;;;;;;;;;;;29.90;32.24;98746.63;5045907;28;19936;-68
2022/07/14 11:55:54;;;;;;;;;;;;;;;29.89;31.48;98739.41;5050303;28;19928;-68
2022/07/14 11:58:22;;;;;;;;;;;;;;;28.97;32.89;98731.75;5057275;28;19928;-70
2022/07/14 12:00:52;;;;;;;;;;;;;;;28.71;32.94;98731.31;5065606;28;19969;-70
2022/07/14 12:03:18;;;;;;;;;;;;;;;27.95;33.28;98732.31;5061261;28;20256;-69
2022/07/14 12:05:45;;;;;;;;;;;;;;;26.80;35.15;98720.13;4726484;28;10000034;-69
2022/07/14 12:08:12;;;;;;;;;;;;;;;26.07;36.03;98714.94;5035082;28;20346;-70
2022/07/14 12:10:39;;;;;;;;;;;;;;;25.90;36.52;98705.41;5054439;28;19929;-70
2022/07/14 12:13:05;;;;;;;;;;;;;;;27.34;34.32;98710.50;5067692;28;20339;-70
2022/07/14 12:15:32;;;;;;;;;;;;;;;29.46;31.13;98696.78;5068617;28;19932;-70
2022/07/14 12:18:01;;;;;;;;;;;;;;;30.53;29.00;98700.63;5078309;28;19927;-70
2022/07/14 12:20:34;;;;;;;;;;;;;;;31.63;27.89;98691.06;5086469;28;19935;-71
2022/07/14 12:23:02;;;;;;;;;;;;;;;32.31;26.87;98690.28;5084784;28;19928;-70
2022/07/14 12:25:29;;;;;;;;;;;;;;;32.78;26.12;98677.53;5072252;28;19936;-70
2022/07/14 12:27:54;;;;;;;;;;;;;;;33.56;25.68;98679.38;5060130;28;19939;-70
2022/07/14 12:30:20;;;;;;;;;;;;;;;34.17;24.02;98670.66;5068242;28;20310;-70
2022/07/14 12:32:50;;;;;;;;;;;;;;;33.91;24.38;98668.00;5054542;28;20385;-69
2022/07/14 12:35:16;;;;;;;;;;;;;;;34.11;23.72;98658.38;5058673;28;20052;-70
2022/07/14 12:37:43;;;;;;;;;;;;;;;33.87;24.02;98648.28;5051675;28;20573;-71
2022/07/14 12:40:12;;;;;;;;;;;;;;;33.46;24.03;98631.19;5050483;28;19933;-70
2022/07/14 12:42:37;;;;;;;;;;;;;;;33.44;24.17;98624.41;5058613;28;20054;-70
2022/07/14 12:45:07;;;;;;;;;;;;;;;33.69;24.02;98637.63;5061383;28;19932;-71
2022/07/14 12:47:47;;;;;;;;;;;;;;;33.95;23.20;98620.47;5059208;28;20019;-71
2022/07/14 12:50:18;;;;;;;;;;;;;;;34.54;22.91;98597.13;5039784;28;20500;-67
2022/07/14 12:52:52;;;;;;;;;;;;;;;35.25;22.04;98600.19;5056872;28;20001;-66
2022/07/14 12:55:32;;;;;;;;;;;;;;;35.80;21.06;98589.22;5065924;28;19954;-67
2022/07/14 12:58:02;;;;;;;;;;;;;;;35.32;22.00;98579.97;5063347;28;19928;-69
2022/07/14 13:00:30;;;;;;;;;;;;;;;35.46;22.07;98575.72;5064113;28;19928;-66
2022/07/14 13:03:06;;;;;;;;;;;;;;;35.73;21.76;98568.38;5064791;28;19978;-69